Terminal Aerodrome Forecast
Issued by NWS

Home | Current Version | Previous Version | Text Only | Print | Product List | Glossary On
Versions: 1 2 3 4 5 6 7 8 9 10 11 12 13 14
000
FTUS42 KMLB 031748
TAFISM
TAF
KISM 031748Z 0318/0418 08012KT P6SM FEW035
     FM040000 06007KT P6SM FEW030
     FM041400 12011KT P6SM SCT030=

USA.gov is the U.S. government's official web portal to all federal, state and local government web resources and services.